San Luis County Regional Airport
KSBP : now visible

Airfield :











YOU CAN JOIN US ON...

 
LOGIN :

Register | Disclaimer

   EN    FR    IT 

 









Legend :    VFR   Marginal VFR   IFR   Intensive IFR   Very Intensive IFR
Visi :
Ceiling :
>= 8 km
>= 3000ft
5 to 8 km
1000 to 3000 ft
1500m to 5 km
500 to 1000 ft
800 to 1500m
200 to 500 ft
< 800m
< 200 ft
Symbols :   Thunderstorms  Fog  Heavy snow  Heavy precipitations  Wind > 20 kt






- Airport Elevation : 212 ft
- IATA code : SBP


KSBP - San Luis County Regional

CURRENT METAR :
  • 241508Z 00000KT 2 1/2SM BR OVC003 13/12 A2995 RMK AO2 T01330122

EXPIRED METARs :
  • 241456Z 00000KT 3SM BR OVC003 13/12 A2995 RMK AO2 SLP142 T01330122 53007
  • 241356Z 23003KT 6SM BR OVC004 14/12 A2994 RMK AO2 SLP136 T01390122
  • 241256Z 09003KT 5SM BR OVC003 14/13 A2993 RMK AO2 SLP132 T01390128

TAF KSBP
Valid from the 24 at 15:00 until the 25 at 12:00 UTC


241517Z 2415/2512 VRB03KT 2SM BR OVC003
FM241630 VRB03KT 6SM BR BKN007
FM241730 VRB03KT P6SM SKC
FM242000 29009KT P6SM SKC
FM250500 VRB03KT P6SM BKN007
FM250900 VRB03KT 4SM BR OVC004
KZLA FIR / North America



MET'MAP, your aeronautical weather chart ! - Copyright ORBIFLY December 2007 - Disclaimer

ORBIFLY MET'MAP TEAM :

Programming & Development : Alexandra Zaïnal
Concept & original design : Baudouin d'Aumeries
Assistance for programming : Marc-Olivier Méhu
Technical & hardware support : Manuel Goepfert

Contact : metmap@orbifly.com




SOURCES & CREDITS :

   NOAA       Earth
Advisory